createdAt,value
2022-11-07T00:01:48.236Z,5.63
2022-11-07T00:04:15.827Z,6.22
2022-11-07T00:06:43.035Z,5.75
2022-11-07T00:09:10.219Z,5.85
2022-11-07T00:11:37.418Z,5.20
2022-11-07T00:14:04.753Z,5.65
2022-11-07T00:16:32.843Z,4.85
2022-11-07T00:19:00.013Z,5.63
2022-11-07T00:21:27.181Z,4.80
2022-11-07T00:23:54.339Z,6.03
2022-11-07T00:26:21.903Z,5.90
2022-11-07T00:28:49.048Z,5.93
2022-11-07T00:31:16.524Z,5.13
2022-11-07T00:33:44.079Z,4.95
2022-11-07T00:36:17.101Z,5.10
2022-11-07T00:38:44.539Z,5.05
2022-11-07T00:41:11.964Z,5.15
2022-11-07T00:43:39.142Z,5.05
2022-11-07T00:46:06.820Z,4.90
2022-11-07T00:48:34.022Z,5.28
2022-11-07T00:51:07.412Z,5.00
2022-11-07T00:53:34.607Z,4.95
2022-11-07T00:56:05.776Z,4.55
2022-11-07T00:58:33.085Z,5.07
2022-11-07T01:01:00.507Z,4.32
2022-11-07T01:03:46.160Z,4.75
2022-11-07T01:06:13.342Z,4.35
2022-11-07T01:08:40.489Z,5.10
2022-11-07T01:11:08.268Z,5.10
2022-11-07T01:13:35.802Z,5.10
2022-11-07T01:16:03.210Z,4.93
2022-11-07T01:18:30.927Z,4.50
2022-11-07T01:20:58.118Z,4.30
2022-11-07T01:23:25.292Z,4.60
2022-11-07T01:25:52.434Z,4.72
2022-11-07T01:28:19.627Z,5.47
2022-11-07T01:30:46.820Z,4.82
2022-11-07T01:33:14.550Z,4.95
2022-11-07T01:35:42.051Z,4.03
2022-11-07T01:38:09.224Z,5.10
2022-11-07T01:41:01.447Z,3.92
2022-11-07T01:43:48.342Z,4.30
2022-11-07T01:46:16.049Z,4.55
2022-11-07T01:48:47.808Z,5.15
2022-11-07T01:51:15.844Z,4.60
2022-11-07T01:53:43.118Z,5.10
2022-11-07T01:56:13.600Z,4.30
2022-11-07T01:58:41.763Z,4.68
2022-11-07T02:01:08.982Z,4.72
2022-11-07T02:03:36.212Z,4.50
2022-11-07T02:06:05.872Z,4.82
2022-11-07T02:08:34.735Z,4.28
2022-11-07T02:11:03.129Z,4.43
2022-11-07T02:13:32.074Z,4.35
2022-11-07T02:16:00.650Z,4.45
2022-11-07T02:18:28.238Z,4.88
2022-11-07T02:20:57.718Z,3.97
2022-11-07T02:23:28.679Z,5.10
2022-11-07T02:25:56.178Z,3.90
2022-11-07T02:28:24.135Z,4.43
2022-11-07T02:30:51.350Z,4.55
2022-11-07T02:33:20.512Z,4.65
2022-11-07T02:35:49.159Z,4.10
2022-11-07T02:38:24.423Z,4.00
2022-11-07T02:41:14.563Z,3.80
2022-11-07T02:43:49.192Z,4.20
2022-11-07T02:46:16.898Z,4.50
2022-11-07T02:48:45.579Z,4.63
2022-11-07T02:51:12.747Z,4.18
2022-11-07T02:53:39.944Z,4.43
2022-11-07T02:56:07.493Z,4.18
2022-11-07T02:58:34.699Z,4.22
2022-11-07T03:01:07.194Z,4.50
2022-11-07T03:03:41.429Z,4.20
2022-11-07T03:06:09.538Z,4.47
2022-11-07T03:08:36.747Z,4.22
2022-11-07T03:11:04.033Z,4.55
2022-11-07T03:13:31.243Z,4.30
2022-11-07T03:15:58.440Z,4.25
2022-11-07T03:18:26.083Z,4.20
2022-11-07T03:20:53.249Z,4.38
2022-11-07T03:23:20.376Z,4.13
2022-11-07T03:25:47.548Z,4.28
2022-11-07T03:28:14.763Z,4.75
2022-11-07T03:30:41.915Z,4.72
2022-11-07T03:33:09.045Z,4.63
2022-11-07T03:35:36.275Z,4.55
2022-11-07T03:38:03.472Z,4.47
2022-11-07T03:40:30.592Z,4.63
2022-11-07T03:42:57.760Z,4.57
2022-11-07T03:45:24.909Z,5.30
2022-11-07T03:47:52.064Z,4.80
2022-11-07T03:50:20.894Z,3.88
2022-11-07T03:52:48.604Z,4.70
2022-11-07T03:55:18.118Z,4.45
2022-11-07T03:57:45.707Z,3.97
2022-11-07T04:00:13.198Z,4.22
2022-11-07T04:02:40.715Z,3.75
2022-11-07T04:05:08.123Z,4.10
2022-11-07T04:07:35.343Z,4.40
2022-11-07T04:10:02.494Z,5.18
2022-11-07T04:12:48.627Z,4.50
2022-11-07T04:15:34.713Z,4.60
2022-11-07T04:18:01.917Z,4.57
2022-11-07T04:20:29.363Z,4.03
2022-11-07T04:22:56.501Z,4.00
2022-11-07T04:25:43.603Z,4.47
2022-11-07T04:28:10.777Z,4.65
2022-11-07T04:30:37.921Z,4.28
2022-11-07T04:33:05.113Z,4.35
2022-11-07T04:35:33.481Z,4.18
2022-11-07T04:38:01.291Z,4.00
2022-11-07T04:40:29.385Z,5.05
2022-11-07T04:42:56.561Z,4.45
2022-11-07T04:45:23.919Z,4.60
2022-11-07T04:47:51.072Z,4.82
2022-11-07T04:50:19.244Z,4.82
2022-11-07T04:52:47.110Z,4.80
2022-11-07T04:55:32.144Z,4.47
2022-11-07T04:57:59.388Z,4.85
2022-11-07T05:00:26.569Z,4.32
2022-11-07T05:02:53.807Z,4.30
2022-11-07T05:05:21.248Z,4.57
2022-11-07T05:07:49.064Z,4.07
2022-11-07T05:10:20.995Z,4.40
2022-11-07T05:12:48.137Z,4.07
2022-11-07T05:15:15.487Z,4.07
2022-11-07T05:17:42.923Z,4.10
2022-11-07T05:20:30.586Z,4.43
2022-11-07T05:23:15.101Z,4.68
2022-11-07T05:25:43.496Z,4.53
2022-11-07T05:28:11.752Z,3.92
2022-11-07T05:30:40.420Z,4.18
2022-11-07T05:33:07.972Z,4.55
2022-11-07T05:35:35.196Z,4.28
2022-11-07T05:38:02.448Z,4.22
2022-11-07T05:40:29.741Z,4.68
2022-11-07T05:43:03.709Z,4.68
2022-11-07T05:45:31.710Z,5.13
2022-11-07T05:48:03.002Z,4.45
2022-11-07T05:50:30.502Z,4.10
2022-11-07T05:52:57.911Z,4.32
2022-11-07T05:55:25.738Z,4.65
2022-11-07T05:57:53.320Z,4.95
2022-11-07T06:00:20.799Z,4.80
2022-11-07T06:02:54.944Z,5.70
2022-11-07T06:05:24.323Z,4.82
2022-11-07T06:07:51.692Z,4.45
2022-11-07T06:10:19.324Z,4.57
2022-11-07T06:12:46.651Z,4.90
2022-11-07T06:15:14.047Z,4.63
2022-11-07T06:17:41.232Z,4.35
2022-11-07T06:20:08.532Z,4.60
2022-11-07T06:22:35.731Z,4.45
2022-11-07T06:25:03.752Z,4.45
2022-11-07T06:27:31.637Z,5.32
2022-11-07T06:29:58.811Z,4.82
2022-11-07T06:32:26.100Z,5.30
2022-11-07T06:34:53.260Z,4.68
2022-11-07T06:37:20.397Z,4.55
2022-11-07T06:39:47.646Z,5.03
2022-11-07T06:42:14.793Z,5.90
2022-11-07T06:44:41.935Z,4.60
2022-11-07T06:47:09.123Z,4.93
2022-11-07T06:49:36.247Z,4.85
2022-11-07T06:52:03.426Z,4.75
2022-11-07T06:54:30.546Z,4.95
2022-11-07T06:56:57.772Z,4.88
2022-11-07T06:59:24.914Z,6.13
2022-11-07T07:01:52.090Z,5.03
2022-11-07T07:04:19.306Z,4.90
2022-11-07T07:06:46.450Z,5.45
2022-11-07T07:09:13.675Z,4.60
2022-11-07T07:11:42.717Z,4.82
2022-11-07T07:14:11.703Z,4.72
2022-11-07T07:16:39.331Z,4.80
2022-11-07T07:19:06.505Z,4.45
2022-11-07T07:21:34.835Z,4.90
2022-11-07T07:24:01.979Z,4.93
2022-11-07T07:26:29.188Z,4.82
2022-11-07T07:28:56.331Z,4.13
2022-11-07T07:31:29.263Z,5.57
2022-11-07T07:33:56.515Z,5.55
2022-11-07T07:36:23.835Z,5.85
2022-11-07T07:38:51.252Z,5.30
2022-11-07T07:41:19.112Z,6.47
2022-11-07T07:43:46.273Z,5.13
2022-11-07T07:46:18.631Z,5.80
2022-11-07T07:48:45.890Z,5.95
2022-11-07T07:51:13.098Z,5.40
2022-11-07T07:53:40.250Z,6.00
2022-11-07T07:56:07.654Z,5.82
2022-11-07T07:58:34.987Z,5.70
2022-11-07T08:01:02.328Z,6.45
2022-11-07T08:03:50.794Z,5.57
2022-11-07T08:06:16.865Z,5.03
2022-11-07T08:08:44.053Z,4.93
2022-11-07T08:11:11.294Z,5.40
2022-11-07T08:13:38.424Z,5.10
2022-11-07T08:16:07.796Z,5.82
2022-11-07T08:18:36.694Z,5.13
2022-11-07T08:21:03.887Z,4.80
2022-11-07T08:23:31.275Z,4.78
2022-11-07T08:25:59.412Z,5.35
2022-11-07T08:28:27.965Z,5.13
2022-11-07T08:30:58.932Z,5.13
2022-11-07T08:33:26.739Z,4.57
2022-11-07T08:35:58.934Z,4.88
2022-11-07T08:38:26.093Z,4.35
2022-11-07T08:40:53.548Z,4.50
2022-11-07T08:43:20.865Z,4.57
2022-11-07T08:45:48.696Z,4.57
2022-11-07T08:48:16.820Z,4.57
2022-11-07T08:50:44.316Z,3.70
2022-11-07T08:53:11.968Z,4.30
2022-11-07T08:55:39.188Z,4.05
2022-11-07T08:58:07.539Z,3.60
2022-11-07T09:00:35.957Z,3.53
2022-11-07T09:05:51.512Z,4.55
2022-11-07T09:08:19.029Z,4.25
2022-11-07T09:10:46.183Z,4.43
2022-11-07T09:13:15.131Z,4.50
2022-11-07T09:15:47.682Z,4.50
2022-11-07T09:18:16.699Z,3.92
2022-11-07T09:20:43.857Z,4.25
2022-11-07T09:23:11.055Z,4.15
2022-11-07T09:25:38.198Z,3.92
2022-11-07T09:28:05.531Z,3.95
2022-11-07T09:30:32.775Z,4.63
2022-11-07T09:32:59.939Z,4.00
2022-11-07T09:35:27.603Z,3.58
2022-11-07T09:37:54.747Z,4.35
2022-11-07T09:40:31.587Z,4.07
2022-11-07T09:43:01.716Z,4.40
2022-11-07T09:45:29.808Z,4.03
2022-11-07T09:48:07.206Z,4.65
2022-11-07T09:50:39.167Z,3.47
2022-11-07T09:53:19.187Z,4.40
2022-11-07T09:55:52.210Z,4.15
2022-11-07T09:58:39.611Z,3.78
2022-11-07T10:01:08.086Z,4.40
2022-11-07T10:03:35.985Z,4.28
2022-11-07T10:06:41.830Z,3.83
2022-11-07T10:09:31.882Z,3.93
2022-11-07T10:12:04.939Z,4.55
2022-11-07T10:14:40.802Z,4.05
2022-11-07T10:17:07.962Z,3.67
2022-11-07T10:20:01.283Z,3.85
2022-11-07T10:22:28.416Z,4.88
2022-11-07T10:25:05.648Z,3.88
2022-11-07T10:27:33.185Z,4.25
2022-11-07T10:30:01.572Z,4.47
2022-11-07T10:32:36.947Z,4.70
2022-11-07T10:37:31.642Z,4.18
2022-11-07T10:39:58.936Z,3.80
2022-11-07T10:42:31.605Z,4.07
2022-11-07T10:44:59.334Z,3.83
2022-11-07T10:47:30.712Z,4.70
2022-11-07T10:49:59.278Z,4.20
2022-11-07T10:52:27.329Z,4.30
2022-11-07T10:55:15.678Z,3.55
2022-11-07T10:57:43.396Z,4.65
2022-11-07T11:00:29.309Z,3.88
2022-11-07T11:02:57.184Z,3.58
2022-11-07T11:05:29.036Z,4.43
2022-11-07T11:07:57.467Z,4.15
2022-11-07T11:10:38.008Z,2.97
2022-11-07T11:13:06.586Z,3.22
2022-11-07T11:15:43.431Z,3.80
2022-11-07T11:18:16.516Z,4.55
2022-11-07T11:20:45.403Z,4.05
2022-11-07T11:23:31.976Z,3.90
2022-11-07T11:26:01.042Z,3.67
2022-11-07T11:28:33.810Z,3.33
2022-11-07T11:31:06.469Z,4.13
2022-11-07T11:33:39.699Z,3.45
2022-11-07T11:36:14.728Z,3.42
2022-11-07T11:38:43.148Z,2.78
2022-11-07T11:41:22.144Z,3.25
2022-11-07T11:43:52.764Z,3.47
2022-11-07T11:46:32.123Z,3.88
2022-11-07T11:49:06.674Z,3.42
2022-11-07T11:51:41.087Z,3.03
2022-11-07T11:54:09.838Z,2.58
2022-11-07T11:56:48.595Z,3.10
2022-11-07T11:59:18.863Z,2.55
2022-11-07T12:01:58.269Z,2.65
2022-11-07T12:04:28.209Z,3.60
2022-11-07T12:07:01.520Z,3.33
2022-11-07T12:09:36.756Z,3.20
2022-11-07T12:12:26.688Z,3.20
2022-11-07T12:15:02.604Z,3.22
2022-11-07T12:17:37.670Z,2.70
2022-11-07T12:20:10.670Z,2.80
2022-11-07T12:22:46.637Z,3.47
2022-11-07T12:25:22.703Z,3.03
2022-11-07T12:28:12.939Z,3.25
2022-11-07T12:30:40.084Z,2.92
2022-11-07T12:33:13.397Z,3.33
2022-11-07T12:35:49.925Z,3.30
2022-11-07T12:38:17.567Z,3.42
2022-11-07T12:41:07.647Z,2.97
2022-11-07T12:43:53.761Z,3.00
2022-11-07T12:46:27.098Z,3.30
2022-11-07T12:49:09.469Z,2.78
2022-11-07T12:51:36.598Z,3.67
2022-11-07T12:54:16.199Z,2.90
2022-11-07T12:56:46.304Z,3.47
2022-11-07T12:59:23.239Z,3.10
2022-11-07T13:01:56.681Z,3.13
2022-11-07T13:04:32.927Z,3.15
2022-11-07T13:07:20.538Z,3.00
2022-11-07T13:09:54.393Z,3.25
2022-11-07T13:12:40.621Z,4.00
2022-11-07T13:15:09.837Z,3.03
2022-11-07T13:17:47.596Z,3.45
2022-11-07T13:20:20.999Z,3.35
2022-11-07T13:22:51.147Z,2.85
2022-11-07T13:25:18.307Z,3.80
2022-11-07T13:27:47.188Z,3.03
2022-11-07T13:30:17.237Z,3.78
2022-11-07T13:32:44.393Z,3.22
2022-11-07T13:35:31.782Z,3.53
2022-11-07T13:38:16.058Z,3.40
2022-11-07T13:40:51.040Z,3.08
2022-11-07T13:43:38.534Z,3.45
2022-11-07T13:46:08.061Z,3.65
2022-11-07T13:48:44.244Z,4.38
2022-11-07T13:51:14.972Z,3.92
2022-11-07T13:53:58.989Z,3.75
2022-11-07T13:56:32.375Z,4.00
2022-11-07T13:59:00.748Z,4.35
2022-11-07T14:01:28.048Z,3.33
2022-11-07T14:03:55.322Z,3.28
2022-11-07T14:06:23.501Z,2.95
2022-11-07T14:08:50.724Z,3.28
2022-11-07T14:11:20.216Z,3.30
2022-11-07T14:13:52.524Z,3.80
2022-11-07T14:16:19.644Z,4.35
2022-11-07T14:18:58.021Z,5.95
2022-11-07T14:21:29.828Z,5.30
2022-11-07T14:23:57.266Z,5.95
2022-11-07T14:26:25.834Z,16.13
2022-11-07T14:28:57.746Z,8.15
2022-11-07T14:31:27.694Z,4.80
2022-11-07T14:33:56.132Z,5.88
2022-11-07T14:36:23.836Z,4.78
2022-11-07T14:38:52.264Z,5.55
2022-11-07T14:41:20.252Z,4.72
2022-11-07T14:43:48.559Z,4.68
2022-11-07T14:46:17.320Z,4.82
2022-11-07T14:48:44.828Z,4.90
2022-11-07T14:51:16.449Z,4.53
2022-11-07T14:54:03.913Z,3.90
2022-11-07T14:56:36.626Z,4.53
2022-11-07T14:59:04.215Z,4.28
2022-11-07T15:01:35.142Z,4.50
2022-11-07T15:04:26.029Z,4.45
2022-11-07T15:06:53.209Z,4.97
2022-11-07T15:09:30.992Z,4.78
2022-11-07T15:11:59.235Z,4.25
2022-11-07T15:14:34.325Z,5.43
2022-11-07T15:17:04.215Z,4.55
2022-11-07T15:19:32.580Z,5.20
2022-11-07T15:22:01.001Z,4.97
2022-11-07T15:24:36.275Z,4.70
2022-11-07T15:27:16.165Z,5.50
2022-11-07T15:30:09.932Z,4.90
2022-11-07T15:32:41.534Z,4.60
2022-11-07T15:35:43.143Z,6.65
2022-11-07T15:38:03.375Z,4.55
2022-11-07T15:40:30.898Z,4.72
2022-11-07T15:42:58.082Z,4.35
2022-11-07T15:45:25.329Z,4.50
2022-11-07T15:47:52.590Z,5.03
2022-11-07T15:50:21.250Z,5.05
2022-11-07T15:52:48.855Z,4.88
2022-11-07T15:55:18.540Z,4.75
2022-11-07T15:57:46.750Z,4.90
2022-11-07T16:00:18.381Z,4.68
2022-11-07T16:02:46.000Z,4.85
2022-11-07T16:05:13.942Z,4.60
2022-11-07T16:07:42.031Z,4.30
2022-11-07T16:10:18.360Z,4.13
2022-11-07T16:12:45.582Z,4.20
2022-11-07T16:15:16.624Z,4.43
2022-11-07T16:17:44.254Z,4.93
2022-11-07T16:20:15.554Z,4.78
2022-11-07T16:22:43.815Z,4.38
2022-11-07T16:25:21.824Z,4.45
2022-11-07T16:27:56.476Z,5.00
2022-11-07T16:30:23.770Z,4.43
2022-11-07T16:32:50.902Z,4.05
2022-11-07T16:35:18.241Z,4.50
2022-11-07T16:37:45.587Z,3.63
2022-11-07T16:40:14.175Z,4.70
2022-11-07T16:42:41.389Z,3.90
2022-11-07T16:45:08.770Z,4.28
2022-11-07T16:47:38.704Z,4.22
2022-11-07T16:50:06.046Z,4.13
2022-11-07T16:52:33.178Z,4.40
2022-11-07T16:55:00.360Z,4.47
2022-11-07T16:57:27.548Z,3.97
2022-11-07T16:59:55.962Z,4.78
2022-11-07T17:02:24.827Z,5.35
2022-11-07T17:04:53.348Z,4.35
2022-11-07T17:07:21.915Z,4.20
2022-11-07T17:09:49.102Z,4.70
2022-11-07T17:12:17.702Z,4.80
2022-11-07T17:14:44.975Z,3.35
2022-11-07T17:17:13.190Z,3.78
2022-11-07T17:19:40.450Z,3.60
2022-11-07T17:22:08.105Z,4.38
2022-11-07T17:24:35.250Z,4.43
2022-11-07T17:27:02.375Z,4.13
2022-11-07T17:29:29.569Z,5.47
2022-11-07T17:31:56.714Z,4.07
2022-11-07T17:34:23.984Z,4.82
2022-11-07T17:36:51.960Z,5.13
2022-11-07T17:39:20.392Z,5.03
2022-11-07T17:41:48.688Z,4.88
2022-11-07T17:44:16.807Z,4.63
2022-11-07T17:46:44.881Z,4.82
2022-11-07T17:49:13.692Z,5.22
2022-11-07T17:51:42.062Z,6.85
2022-11-07T17:54:13.411Z,8.93
2022-11-07T17:56:40.939Z,6.07
2022-11-07T17:59:13.037Z,6.45
2022-11-07T18:01:40.600Z,5.40
2022-11-07T18:04:08.837Z,4.78
2022-11-07T18:06:36.969Z,8.23
2022-11-07T18:09:06.143Z,6.32
2022-11-07T18:11:33.693Z,7.00
2022-11-07T18:14:00.941Z,8.60
2022-11-07T18:16:30.691Z,8.45
2022-11-07T18:18:58.534Z,8.38
2022-11-07T18:21:26.421Z,7.18
2022-11-07T18:23:53.737Z,5.28
2022-11-07T18:26:31.097Z,5.45
2022-11-07T18:29:01.789Z,5.35
2022-11-07T18:31:28.961Z,5.68
2022-11-07T18:33:57.728Z,5.68
2022-11-07T18:36:25.156Z,6.03
2022-11-07T18:38:52.313Z,5.68
2022-11-07T18:41:21.456Z,5.72
2022-11-07T18:43:49.044Z,5.72
2022-11-07T18:46:17.531Z,5.03
2022-11-07T18:48:44.737Z,5.78
2022-11-07T18:51:13.612Z,5.63
2022-11-07T18:53:42.933Z,5.63
2022-11-07T18:56:10.496Z,5.00
2022-11-07T18:58:38.215Z,5.30
2022-11-07T19:01:07.068Z,5.43
2022-11-07T19:03:35.059Z,5.50
2022-11-07T19:06:04.586Z,5.35
2022-11-07T19:08:32.703Z,5.00
2022-11-07T19:11:00.555Z,5.50
2022-11-07T19:13:28.994Z,5.43
2022-11-07T19:15:56.479Z,6.00
2022-11-07T19:18:23.766Z,5.35
2022-11-07T19:20:54.563Z,4.60
2022-11-07T19:23:22.271Z,5.18
2022-11-07T19:25:49.494Z,4.60
2022-11-07T19:28:17.063Z,5.32
2022-11-07T19:30:44.637Z,4.47
2022-11-07T19:33:12.219Z,4.82
2022-11-07T19:35:40.114Z,5.32
2022-11-07T19:38:09.167Z,4.57
2022-11-07T19:40:36.944Z,4.47
2022-11-07T19:43:04.894Z,4.95
2022-11-07T19:45:32.668Z,4.75
2022-11-07T19:47:59.880Z,4.95
2022-11-07T19:50:27.126Z,4.50
2022-11-07T19:52:54.312Z,5.60
2022-11-07T19:55:21.503Z,5.03
2022-11-07T19:57:50.257Z,4.80
2022-11-07T20:00:17.608Z,5.07
2022-11-07T20:02:48.800Z,4.20
2022-11-07T20:05:24.307Z,4.53
2022-11-07T20:07:58.082Z,3.50
2022-11-07T20:10:28.127Z,4.30
2022-11-07T20:12:55.729Z,5.15
2022-11-07T20:15:23.097Z,4.40
2022-11-07T20:17:50.636Z,3.90
2022-11-07T20:20:17.802Z,3.72
2022-11-07T20:22:49.229Z,4.20
2022-11-07T20:25:16.404Z,4.30
2022-11-07T20:27:43.605Z,3.85
2022-11-07T20:30:11.233Z,4.18
2022-11-07T20:32:40.112Z,3.75
2022-11-07T20:35:07.938Z,3.17
2022-11-07T20:37:35.989Z,4.53
2022-11-07T20:40:03.232Z,3.13
2022-11-07T20:42:30.412Z,3.75
2022-11-07T20:44:57.540Z,3.22
2022-11-07T20:47:25.143Z,3.47
2022-11-07T20:49:52.396Z,4.13
2022-11-07T20:52:19.543Z,3.20
2022-11-07T20:54:46.760Z,3.33
2022-11-07T20:57:13.938Z,3.28
2022-11-07T20:59:42.118Z,3.03
2022-11-07T21:02:13.001Z,2.97
2022-11-07T21:05:03.323Z,2.95
2022-11-07T21:07:27.476Z,3.15
2022-11-07T21:09:54.610Z,3.10
2022-11-07T21:12:21.740Z,3.35
2022-11-07T21:14:48.917Z,3.05
2022-11-07T21:17:16.774Z,3.83
2022-11-07T21:19:43.971Z,3.13
2022-11-07T21:22:11.120Z,3.05
2022-11-07T21:24:38.258Z,2.95
2022-11-07T21:27:05.969Z,3.25
2022-11-07T21:29:33.738Z,3.33
2022-11-07T21:32:02.442Z,3.70
2022-11-07T21:34:29.848Z,4.10
2022-11-07T21:36:56.992Z,3.20
2022-11-07T21:39:24.478Z,3.60
2022-11-07T21:41:51.658Z,2.90
2022-11-07T21:44:18.812Z,3.08
2022-11-07T21:46:46.044Z,3.95
2022-11-07T21:49:13.217Z,3.00
2022-11-07T21:51:40.496Z,2.83
2022-11-07T21:54:08.153Z,3.50
2022-11-07T21:56:36.568Z,3.28
2022-11-07T21:59:05.416Z,3.75
2022-11-07T22:01:35.228Z,2.92
2022-11-07T22:04:07.678Z,3.13
2022-11-07T22:06:37.089Z,3.55
2022-11-07T22:09:04.966Z,3.60
2022-11-07T22:11:32.134Z,2.53
2022-11-07T22:13:59.449Z,3.22
2022-11-07T22:16:28.865Z,3.22
2022-11-07T22:18:56.231Z,3.05
2022-11-07T22:21:23.934Z,3.22
2022-11-07T22:23:56.101Z,3.35
2022-11-07T22:26:24.466Z,2.90
2022-11-07T22:28:52.032Z,3.40
2022-11-07T22:31:20.604Z,4.00
2022-11-07T22:33:48.404Z,2.83
2022-11-07T22:36:15.966Z,2.85
2022-11-07T22:38:43.566Z,3.30
2022-11-07T22:41:13.664Z,3.50
2022-11-07T22:43:41.044Z,3.35
2022-11-07T22:46:09.416Z,3.30
2022-11-07T22:48:36.952Z,3.33
2022-11-07T22:51:08.593Z,3.25
2022-11-07T22:53:36.172Z,3.80
2022-11-07T22:56:09.672Z,3.40
2022-11-07T22:58:37.203Z,3.47
2022-11-07T23:01:04.607Z,3.85
2022-11-07T23:03:32.544Z,3.50
2022-11-07T23:06:04.187Z,3.35
2022-11-07T23:08:32.091Z,3.38
2022-11-07T23:11:40.275Z,3.63
2022-11-07T23:14:00.567Z,4.45
2022-11-07T23:16:38.284Z,3.40
2022-11-07T23:19:07.116Z,3.45
2022-11-07T23:21:34.586Z,4.13
2022-11-07T23:24:02.143Z,3.13
2022-11-07T23:26:36.207Z,3.47
2022-11-07T23:29:11.229Z,3.72
2022-11-07T23:34:05.863Z,3.65
2022-11-07T23:36:33.040Z,3.35
2022-11-07T23:39:04.736Z,3.20
2022-11-07T23:41:31.905Z,2.90
2022-11-07T23:43:59.626Z,3.35
2022-11-07T23:46:45.723Z,3.38
2022-11-07T23:49:31.819Z,3.58
2022-11-07T23:51:58.993Z,3.03
2022-11-07T23:54:44.660Z,2.90
2022-11-07T23:57:11.837Z,3.03
2022-11-07T23:59:57.664Z,3.53
